sensor_id;sensor_type;location;lat;lon;timestamp;P1;durP1;ratioP1;P2;durP2;ratioP2
72797;SDS011;61084;55.816;37.036;2022-08-30T00:01:58;12.75;;;5.45;;
72797;SDS011;61084;55.816;37.036;2022-08-30T00:04:23;16.58;;;5.90;;
72797;SDS011;61084;55.816;37.036;2022-08-30T00:09:15;18.25;;;7.35;;
72797;SDS011;61084;55.816;37.036;2022-08-30T00:11:41;21.20;;;6.25;;
72797;SDS011;61084;55.816;37.036;2022-08-30T00:14:07;14.60;;;5.85;;
72797;SDS011;61084;55.816;37.036;2022-08-30T00:16:33;13.00;;;5.97;;
72797;SDS011;61084;55.816;37.036;2022-08-30T00:18:59;17.77;;;6.20;;
72797;SDS011;61084;55.816;37.036;2022-08-30T00:21:26;13.90;;;5.65;;
72797;SDS011;61084;55.816;37.036;2022-08-30T00:23:52;18.92;;;6.03;;
72797;SDS011;61084;55.816;37.036;2022-08-30T00:26:18;20.10;;;6.25;;
72797;SDS011;61084;55.816;37.036;2022-08-30T00:28:44;15.30;;;5.70;;
72797;SDS011;61084;55.816;37.036;2022-08-30T00:31:10;14.95;;;5.55;;
72797;SDS011;61084;55.816;37.036;2022-08-30T00:33:37;13.50;;;5.57;;
72797;SDS011;61084;55.816;37.036;2022-08-30T00:36:04;18.73;;;5.70;;
72797;SDS011;61084;55.816;37.036;2022-08-30T00:38:30;18.15;;;6.20;;
72797;SDS011;61084;55.816;37.036;2022-08-30T00:40:56;16.95;;;5.93;;
72797;SDS011;61084;55.816;37.036;2022-08-30T00:43:28;15.80;;;5.65;;
72797;SDS011;61084;55.816;37.036;2022-08-30T00:45:56;15.88;;;5.20;;
72797;SDS011;61084;55.816;37.036;2022-08-30T00:48:22;14.35;;;6.38;;
72797;SDS011;61084;55.816;37.036;2022-08-30T00:50:55;15.70;;;5.50;;
72797;SDS011;61084;55.816;37.036;2022-08-30T00:53:26;16.67;;;5.45;;
72797;SDS011;61084;55.816;37.036;2022-08-30T00:55:56;11.77;;;5.63;;
72797;SDS011;61084;55.816;37.036;2022-08-30T00:58:26;15.48;;;6.00;;
72797;SDS011;61084;55.816;37.036;2022-08-30T01:00:56;13.52;;;5.57;;
72797;SDS011;61084;55.816;37.036;2022-08-30T01:03:24;15.52;;;5.70;;
72797;SDS011;61084;55.816;37.036;2022-08-30T01:05:50;17.95;;;5.53;;
72797;SDS011;61084;55.816;37.036;2022-08-30T01:08:17;17.00;;;6.07;;
72797;SDS011;61084;55.816;37.036;2022-08-30T01:10:46;14.13;;;5.50;;
72797;SDS011;61084;55.816;37.036;2022-08-30T01:13:14;18.73;;;6.18;;
72797;SDS011;61084;55.816;37.036;2022-08-30T01:15:41;15.57;;;5.85;;
72797;SDS011;61084;55.816;37.036;2022-08-30T01:18:08;13.93;;;5.80;;
72797;SDS011;61084;55.816;37.036;2022-08-30T01:23:17;13.43;;;5.32;;
72797;SDS011;61084;55.816;37.036;2022-08-30T01:25:46;15.23;;;6.68;;
72797;SDS011;61084;55.816;37.036;2022-08-30T01:28:14;17.10;;;5.38;;
72797;SDS011;61084;55.816;37.036;2022-08-30T01:30:45;15.68;;;6.35;;
72797;SDS011;61084;55.816;37.036;2022-08-30T01:35:43;22.58;;;6.45;;
72797;SDS011;61084;55.816;37.036;2022-08-30T01:38:09;22.20;;;6.47;;
72797;SDS011;61084;55.816;37.036;2022-08-30T01:40:36;12.60;;;5.75;;
72797;SDS011;61084;55.816;37.036;2022-08-30T01:43:02;16.45;;;5.80;;
72797;SDS011;61084;55.816;37.036;2022-08-30T01:45:28;12.70;;;5.68;;
72797;SDS011;61084;55.816;37.036;2022-08-30T01:47:54;14.80;;;6.13;;
72797;SDS011;61084;55.816;37.036;2022-08-30T01:50:20;16.20;;;6.00;;
72797;SDS011;61084;55.816;37.036;2022-08-30T01:52:46;12.57;;;6.43;;
72797;SDS011;61084;55.816;37.036;2022-08-30T01:55:12;15.43;;;6.13;;
72797;SDS011;61084;55.816;37.036;2022-08-30T01:57:37;18.23;;;5.82;;
72797;SDS011;61084;55.816;37.036;2022-08-30T02:00:04;17.55;;;6.45;;
72797;SDS011;61084;55.816;37.036;2022-08-30T02:02:37;16.40;;;5.68;;
72797;SDS011;61084;55.816;37.036;2022-08-30T02:05:04;18.83;;;5.38;;
72797;SDS011;61084;55.816;37.036;2022-08-30T02:07:30;13.65;;;5.65;;
72797;SDS011;61084;55.816;37.036;2022-08-30T02:09:56;18.88;;;6.70;;
72797;SDS011;61084;55.816;37.036;2022-08-30T02:12:22;13.95;;;6.05;;
72797;SDS011;61084;55.816;37.036;2022-08-30T02:14:48;14.80;;;6.53;;
72797;SDS011;61084;55.816;37.036;2022-08-30T02:17:14;12.15;;;5.40;;
72797;SDS011;61084;55.816;37.036;2022-08-30T02:19:41;15.50;;;5.35;;
72797;SDS011;61084;55.816;37.036;2022-08-30T02:22:07;17.27;;;6.10;;
72797;SDS011;61084;55.816;37.036;2022-08-30T02:24:33;14.82;;;5.95;;
72797;SDS011;61084;55.816;37.036;2022-08-30T02:27:00;14.55;;;5.90;;
72797;SDS011;61084;55.816;37.036;2022-08-30T02:29:27;13.77;;;6.53;;
72797;SDS011;61084;55.816;37.036;2022-08-30T02:31:53;14.57;;;7.20;;
72797;SDS011;61084;55.816;37.036;2022-08-30T02:34:19;15.57;;;6.15;;
72797;SDS011;61084;55.816;37.036;2022-08-30T02:36:45;17.10;;;5.93;;
72797;SDS011;61084;55.816;37.036;2022-08-30T02:39:12;13.98;;;5.85;;
72797;SDS011;61084;55.816;37.036;2022-08-30T02:41:39;15.63;;;5.95;;
72797;SDS011;61084;55.816;37.036;2022-08-30T02:44:05;18.05;;;6.60;;
72797;SDS011;61084;55.816;37.036;2022-08-30T02:46:32;11.93;;;5.85;;
72797;SDS011;61084;55.816;37.036;2022-08-30T02:48:58;12.63;;;6.03;;
72797;SDS011;61084;55.816;37.036;2022-08-30T02:51:24;14.23;;;5.93;;
72797;SDS011;61084;55.816;37.036;2022-08-30T02:53:50;15.35;;;6.10;;
72797;SDS011;61084;55.816;37.036;2022-08-30T02:56:16;14.65;;;6.15;;
72797;SDS011;61084;55.816;37.036;2022-08-30T02:58:42;12.95;;;6.15;;
72797;SDS011;61084;55.816;37.036;2022-08-30T03:01:10;11.35;;;6.20;;
72797;SDS011;61084;55.816;37.036;2022-08-30T03:03:38;14.80;;;6.53;;
72797;SDS011;61084;55.816;37.036;2022-08-30T03:06:05;13.85;;;6.72;;
72797;SDS011;61084;55.816;37.036;2022-08-30T03:08:31;20.70;;;6.93;;
72797;SDS011;61084;55.816;37.036;2022-08-30T03:10:58;11.70;;;5.97;;
72797;SDS011;61084;55.816;37.036;2022-08-30T03:13:24;16.65;;;6.97;;
72797;SDS011;61084;55.816;37.036;2022-08-30T03:15:50;14.65;;;6.28;;
72797;SDS011;61084;55.816;37.036;2022-08-30T03:18:17;12.95;;;6.90;;
72797;SDS011;61084;55.816;37.036;2022-08-30T03:20:43;20.27;;;7.47;;
72797;SDS011;61084;55.816;37.036;2022-08-30T03:23:09;15.65;;;7.22;;
72797;SDS011;61084;55.816;37.036;2022-08-30T03:25:35;14.48;;;6.78;;
72797;SDS011;61084;55.816;37.036;2022-08-30T03:28:01;16.05;;;6.47;;
72797;SDS011;61084;55.816;37.036;2022-08-30T03:30:28;12.27;;;7.13;;
72797;SDS011;61084;55.816;37.036;2022-08-30T03:32:54;17.83;;;7.68;;
72797;SDS011;61084;55.816;37.036;2022-08-30T03:35:20;16.23;;;7.80;;
72797;SDS011;61084;55.816;37.036;2022-08-30T03:37:46;16.98;;;7.38;;
72797;SDS011;61084;55.816;37.036;2022-08-30T03:40:13;16.80;;;8.18;;
72797;SDS011;61084;55.816;37.036;2022-08-30T03:42:41;19.13;;;7.32;;
72797;SDS011;61084;55.816;37.036;2022-08-30T03:45:07;17.63;;;7.95;;
72797;SDS011;61084;55.816;37.036;2022-08-30T03:47:34;16.05;;;7.85;;
72797;SDS011;61084;55.816;37.036;2022-08-30T03:50:00;19.52;;;8.95;;
72797;SDS011;61084;55.816;37.036;2022-08-30T03:52:28;16.83;;;7.50;;
72797;SDS011;61084;55.816;37.036;2022-08-30T03:54:54;18.77;;;7.22;;
72797;SDS011;61084;55.816;37.036;2022-08-30T03:57:20;12.77;;;7.32;;
72797;SDS011;61084;55.816;37.036;2022-08-30T03:59:46;13.45;;;8.30;;
72797;SDS011;61084;55.816;37.036;2022-08-30T04:02:12;17.30;;;6.78;;
72797;SDS011;61084;55.816;37.036;2022-08-30T04:04:38;13.65;;;8.27;;
72797;SDS011;61084;55.816;37.036;2022-08-30T04:07:04;19.02;;;8.00;;
72797;SDS011;61084;55.816;37.036;2022-08-30T04:09:30;16.83;;;8.23;;
72797;SDS011;61084;55.816;37.036;2022-08-30T04:11:56;19.23;;;8.05;;
72797;SDS011;61084;55.816;37.036;2022-08-30T04:14:21;19.23;;;7.97;;
72797;SDS011;61084;55.816;37.036;2022-08-30T04:16:48;15.30;;;7.55;;
72797;SDS011;61084;55.816;37.036;2022-08-30T04:19:14;17.90;;;8.65;;
72797;SDS011;61084;55.816;37.036;2022-08-30T04:21:39;18.45;;;9.43;;
72797;SDS011;61084;55.816;37.036;2022-08-30T04:24:05;19.80;;;9.15;;
72797;SDS011;61084;55.816;37.036;2022-08-30T04:26:31;19.05;;;9.00;;
72797;SDS011;61084;55.816;37.036;2022-08-30T04:28:57;23.27;;;8.55;;
72797;SDS011;61084;55.816;37.036;2022-08-30T04:33:49;17.67;;;9.65;;
72797;SDS011;61084;55.816;37.036;2022-08-30T04:36:15;14.30;;;9.35;;
72797;SDS011;61084;55.816;37.036;2022-08-30T04:38:41;16.73;;;9.80;;
72797;SDS011;61084;55.816;37.036;2022-08-30T04:41:10;22.85;;;10.38;;
72797;SDS011;61084;55.816;37.036;2022-08-30T04:43:39;17.20;;;10.18;;
72797;SDS011;61084;55.816;37.036;2022-08-30T04:46:06;14.02;;;9.13;;
72797;SDS011;61084;55.816;37.036;2022-08-30T04:48:33;15.07;;;9.60;;
72797;SDS011;61084;55.816;37.036;2022-08-30T04:51:07;27.88;;;10.63;;
72797;SDS011;61084;55.816;37.036;2022-08-30T04:53:37;17.40;;;9.07;;
72797;SDS011;61084;55.816;37.036;2022-08-30T04:56:07;16.30;;;10.05;;
72797;SDS011;61084;55.816;37.036;2022-08-30T04:58:37;19.40;;;10.18;;
72797;SDS011;61084;55.816;37.036;2022-08-30T05:01:03;17.80;;;9.25;;
72797;SDS011;61084;55.816;37.036;2022-08-30T05:05:55;20.13;;;10.15;;
72797;SDS011;61084;55.816;37.036;2022-08-30T05:08:21;20.42;;;10.02;;
72797;SDS011;61084;55.816;37.036;2022-08-30T05:10:48;17.88;;;9.77;;
72797;SDS011;61084;55.816;37.036;2022-08-30T05:13:16;23.08;;;11.95;;
72797;SDS011;61084;55.816;37.036;2022-08-30T05:15:45;22.67;;;10.02;;
72797;SDS011;61084;55.816;37.036;2022-08-30T05:18:11;20.92;;;10.35;;
72797;SDS011;61084;55.816;37.036;2022-08-30T05:20:40;19.60;;;10.00;;
72797;SDS011;61084;55.816;37.036;2022-08-30T05:23:06;21.33;;;10.07;;
72797;SDS011;61084;55.816;37.036;2022-08-30T05:25:35;17.95;;;10.32;;
72797;SDS011;61084;55.816;37.036;2022-08-30T05:28:03;22.17;;;10.25;;
72797;SDS011;61084;55.816;37.036;2022-08-30T05:30:31;24.55;;;12.25;;
72797;SDS011;61084;55.816;37.036;2022-08-30T05:32:59;18.33;;;10.30;;
72797;SDS011;61084;55.816;37.036;2022-08-30T05:35:26;16.80;;;9.73;;
72797;SDS011;61084;55.816;37.036;2022-08-30T05:37:52;24.05;;;10.65;;
72797;SDS011;61084;55.816;37.036;2022-08-30T05:40:19;21.25;;;11.45;;
72797;SDS011;61084;55.816;37.036;2022-08-30T05:42:45;24.80;;;11.82;;
72797;SDS011;61084;55.816;37.036;2022-08-30T05:45:12;20.25;;;10.65;;
72797;SDS011;61084;55.816;37.036;2022-08-30T05:47:39;20.42;;;10.68;;
72797;SDS011;61084;55.816;37.036;2022-08-30T05:50:05;22.40;;;10.60;;
72797;SDS011;61084;55.816;37.036;2022-08-30T05:52:36;19.63;;;10.65;;
72797;SDS011;61084;55.816;37.036;2022-08-30T05:55:04;17.13;;;10.68;;
72797;SDS011;61084;55.816;37.036;2022-08-30T05:57:33;17.42;;;9.85;;
72797;SDS011;61084;55.816;37.036;2022-08-30T06:00:01;21.48;;;10.52;;
72797;SDS011;61084;55.816;37.036;2022-08-30T06:02:38;18.77;;;9.90;;
72797;SDS011;61084;55.816;37.036;2022-08-30T06:05:05;17.33;;;10.50;;
72797;SDS011;61084;55.816;37.036;2022-08-30T06:07:31;17.50;;;10.07;;
72797;SDS011;61084;55.816;37.036;2022-08-30T06:09:56;23.30;;;11.27;;
72797;SDS011;61084;55.816;37.036;2022-08-30T06:12:22;21.80;;;10.45;;
72797;SDS011;61084;55.816;37.036;2022-08-30T06:14:48;19.58;;;11.07;;
72797;SDS011;61084;55.816;37.036;2022-08-30T06:17:14;21.20;;;11.25;;
72797;SDS011;61084;55.816;37.036;2022-08-30T06:19:40;18.40;;;10.05;;
72797;SDS011;61084;55.816;37.036;2022-08-30T06:22:06;19.48;;;10.10;;
72797;SDS011;61084;55.816;37.036;2022-08-30T06:24:31;17.52;;;10.32;;
72797;SDS011;61084;55.816;37.036;2022-08-30T06:26:57;17.45;;;11.35;;
72797;SDS011;61084;55.816;37.036;2022-08-30T06:29:23;21.50;;;11.13;;
72797;SDS011;61084;55.816;37.036;2022-08-30T06:31:49;16.73;;;10.65;;
72797;SDS011;61084;55.816;37.036;2022-08-30T06:36:41;19.88;;;10.63;;
72797;SDS011;61084;55.816;37.036;2022-08-30T06:39:07;18.23;;;11.00;;
72797;SDS011;61084;55.816;37.036;2022-08-30T06:41:35;18.88;;;11.05;;
72797;SDS011;61084;55.816;37.036;2022-08-30T06:44:09;18.15;;;10.07;;
72797;SDS011;61084;55.816;37.036;2022-08-30T06:46:36;20.85;;;10.63;;
72797;SDS011;61084;55.816;37.036;2022-08-30T06:49:03;19.02;;;12.05;;
72797;SDS011;61084;55.816;37.036;2022-08-30T06:51:31;20.00;;;10.73;;
72797;SDS011;61084;55.816;37.036;2022-08-30T06:53:59;21.17;;;11.57;;
72797;SDS011;61084;55.816;37.036;2022-08-30T06:56:26;23.98;;;11.27;;
72797;SDS011;61084;55.816;37.036;2022-08-30T07:01:19;16.92;;;10.60;;
72797;SDS011;61084;55.816;37.036;2022-08-30T07:03:48;17.75;;;10.90;;
72797;SDS011;61084;55.816;37.036;2022-08-30T07:06:14;24.95;;;10.23;;
72797;SDS011;61084;55.816;37.036;2022-08-30T07:08:41;20.17;;;11.13;;
72797;SDS011;61084;55.816;37.036;2022-08-30T07:11:07;21.67;;;10.63;;
72797;SDS011;61084;55.816;37.036;2022-08-30T07:13:33;16.17;;;10.65;;
72797;SDS011;61084;55.816;37.036;2022-08-30T07:16:00;19.02;;;11.48;;
72797;SDS011;61084;55.816;37.036;2022-08-30T07:18:32;23.00;;;10.52;;
72797;SDS011;61084;55.816;37.036;2022-08-30T07:21:20;20.85;;;10.75;;
72797;SDS011;61084;55.816;37.036;2022-08-30T07:23:55;17.63;;;10.50;;
72797;SDS011;61084;55.816;37.036;2022-08-30T07:26:27;19.73;;;10.52;;
72797;SDS011;61084;55.816;37.036;2022-08-30T07:28:58;17.15;;;10.70;;
72797;SDS011;61084;55.816;37.036;2022-08-30T07:31:24;17.60;;;9.90;;
72797;SDS011;61084;55.816;37.036;2022-08-30T07:33:50;16.95;;;10.65;;
72797;SDS011;61084;55.816;37.036;2022-08-30T07:36:16;17.77;;;11.13;;
72797;SDS011;61084;55.816;37.036;2022-08-30T07:38:44;18.77;;;10.05;;
72797;SDS011;61084;55.816;37.036;2022-08-30T07:44:06;17.23;;;10.25;;
72797;SDS011;61084;55.816;37.036;2022-08-30T07:46:33;14.20;;;9.90;;
72797;SDS011;61084;55.816;37.036;2022-08-30T07:49:00;16.25;;;10.25;;
72797;SDS011;61084;55.816;37.036;2022-08-30T07:51:26;19.05;;;10.23;;
72797;SDS011;61084;55.816;37.036;2022-08-30T07:53:53;14.45;;;10.05;;
72797;SDS011;61084;55.816;37.036;2022-08-30T07:56:20;19.40;;;9.52;;
72797;SDS011;61084;55.816;37.036;2022-08-30T07:58:46;27.95;;;9.98;;
72797;SDS011;61084;55.816;37.036;2022-08-30T08:01:13;21.85;;;9.43;;
72797;SDS011;61084;55.816;37.036;2022-08-30T08:03:40;15.18;;;9.02;;
72797;SDS011;61084;55.816;37.036;2022-08-30T08:06:08;16.38;;;10.88;;
72797;SDS011;61084;55.816;37.036;2022-08-30T08:08:36;14.40;;;9.00;;
72797;SDS011;61084;55.816;37.036;2022-08-30T08:13:33;20.67;;;9.10;;
72797;SDS011;61084;55.816;37.036;2022-08-30T08:15:59;20.65;;;9.50;;
72797;SDS011;61084;55.816;37.036;2022-08-30T08:20:51;15.13;;;9.20;;
72797;SDS011;61084;55.816;37.036;2022-08-30T08:25:42;14.27;;;9.40;;
72797;SDS011;61084;55.816;37.036;2022-08-30T08:30:34;19.73;;;9.73;;
72797;SDS011;61084;55.816;37.036;2022-08-30T08:33:01;14.82;;;9.18;;
72797;SDS011;61084;55.816;37.036;2022-08-30T08:35:28;20.60;;;9.63;;
72797;SDS011;61084;55.816;37.036;2022-08-30T08:37:54;20.60;;;9.70;;
72797;SDS011;61084;55.816;37.036;2022-08-30T08:40:20;13.65;;;8.48;;
72797;SDS011;61084;55.816;37.036;2022-08-30T08:46:03;16.55;;;9.93;;
72797;SDS011;61084;55.816;37.036;2022-08-30T08:48:17;17.08;;;9.25;;
72797;SDS011;61084;55.816;37.036;2022-08-30T08:51:09;15.20;;;9.68;;
72797;SDS011;61084;55.816;37.036;2022-08-30T08:54:07;16.77;;;9.13;;
72797;SDS011;61084;55.816;37.036;2022-08-30T08:59:03;15.32;;;9.32;;
72797;SDS011;61084;55.816;37.036;2022-08-30T09:01:32;16.50;;;10.50;;
72797;SDS011;61084;55.816;37.036;2022-08-30T09:04:00;18.23;;;9.95;;
72797;SDS011;61084;55.816;37.036;2022-08-30T09:09:11;15.18;;;9.68;;
72797;SDS011;61084;55.816;37.036;2022-08-30T09:11:37;14.55;;;9.57;;
72797;SDS011;61084;55.816;37.036;2022-08-30T09:14:09;21.48;;;10.18;;
72797;SDS011;61084;55.816;37.036;2022-08-30T09:16:45;16.13;;;10.20;;
72797;SDS011;61084;55.816;37.036;2022-08-30T09:24:53;19.58;;;10.63;;
72797;SDS011;61084;55.816;37.036;2022-08-30T09:27:26;19.70;;;10.57;;
72797;SDS011;61084;55.816;37.036;2022-08-30T09:32:37;19.75;;;10.55;;
72797;SDS011;61084;55.816;37.036;2022-08-30T09:35:16;17.52;;;10.95;;
72797;SDS011;61084;55.816;37.036;2022-08-30T09:40:34;19.05;;;9.45;;
72797;SDS011;61084;55.816;37.036;2022-08-30T09:45:42;18.75;;;9.30;;
72797;SDS011;61084;55.816;37.036;2022-08-30T09:53:32;16.10;;;10.07;;
72797;SDS011;61084;55.816;37.036;2022-08-30T09:56:02;16.00;;;10.25;;
72797;SDS011;61084;55.816;37.036;2022-08-30T09:58:39;19.42;;;11.07;;
72797;SDS011;61084;55.816;37.036;2022-08-30T10:04:35;18.85;;;10.88;;
72797;SDS011;61084;55.816;37.036;2022-08-30T10:06:54;16.92;;;10.63;;
72797;SDS011;61084;55.816;37.036;2022-08-30T10:09:47;20.80;;;11.25;;
72797;SDS011;61084;55.816;37.036;2022-08-30T10:15:39;19.27;;;11.60;;
72797;SDS011;61084;55.816;37.036;2022-08-30T10:23:41;23.02;;;12.05;;
72797;SDS011;61084;55.816;37.036;2022-08-30T10:29:12;24.33;;;11.50;;
72797;SDS011;61084;55.816;37.036;2022-08-30T10:34:51;17.70;;;11.30;;
72797;SDS011;61084;55.816;37.036;2022-08-30T10:37:24;22.33;;;11.23;;
72797;SDS011;61084;55.816;37.036;2022-08-30T10:39:53;23.67;;;11.25;;
72797;SDS011;61084;55.816;37.036;2022-08-30T10:42:24;19.38;;;11.25;;
72797;SDS011;61084;55.816;37.036;2022-08-30T10:45:01;18.02;;;11.15;;
72797;SDS011;61084;55.816;37.036;2022-08-30T10:50:14;15.80;;;9.90;;
72797;SDS011;61084;55.816;37.036;2022-08-30T10:55:15;21.05;;;10.45;;
72797;SDS011;61084;55.816;37.036;2022-08-30T10:57:46;22.25;;;10.93;;
72797;SDS011;61084;55.816;37.036;2022-08-30T11:00:15;21.08;;;10.88;;
72797;SDS011;61084;55.816;37.036;2022-08-30T11:06:50;28.52;;;12.55;;
72797;SDS011;61084;55.816;37.036;2022-08-30T11:09:04;28.75;;;13.10;;
72797;SDS011;61084;55.816;37.036;2022-08-30T11:14:25;21.30;;;12.10;;
72797;SDS011;61084;55.816;37.036;2022-08-30T11:16:52;18.27;;;11.43;;
72797;SDS011;61084;55.816;37.036;2022-08-30T11:22:17;20.92;;;11.90;;
72797;SDS011;61084;55.816;37.036;2022-08-30T11:32:56;21.40;;;11.63;;
72797;SDS011;61084;55.816;37.036;2022-08-30T11:35:44;22.75;;;11.75;;
72797;SDS011;61084;55.816;37.036;2022-08-30T11:48:54;17.98;;;10.60;;
72797;SDS011;61084;55.816;37.036;2022-08-30T11:51:32;21.80;;;10.02;;
72797;SDS011;61084;55.816;37.036;2022-08-30T11:56:48;19.33;;;10.05;;
72797;SDS011;61084;55.816;37.036;2022-08-30T12:01:49;21.10;;;9.05;;
72797;SDS011;61084;55.816;37.036;2022-08-30T12:06:46;22.35;;;9.10;;
72797;SDS011;61084;55.816;37.036;2022-08-30T12:20:09;19.58;;;10.23;;
72797;SDS011;61084;55.816;37.036;2022-08-30T12:22:47;19.73;;;10.90;;
72797;SDS011;61084;55.816;37.036;2022-08-30T12:25:34;17.98;;;9.95;;
72797;SDS011;61084;55.816;37.036;2022-08-30T12:30:49;15.98;;;8.57;;
72797;SDS011;61084;55.816;37.036;2022-08-30T12:33:24;16.58;;;8.80;;
72797;SDS011;61084;55.816;37.036;2022-08-30T12:35:57;12.52;;;8.77;;
72797;SDS011;61084;55.816;37.036;2022-08-30T12:38:23;17.52;;;8.57;;
72797;SDS011;61084;55.816;37.036;2022-08-30T12:40:52;13.90;;;9.23;;
72797;SDS011;61084;55.816;37.036;2022-08-30T12:43:23;15.38;;;9.07;;
72797;SDS011;61084;55.816;37.036;2022-08-30T12:46:10;15.63;;;9.27;;
72797;SDS011;61084;55.816;37.036;2022-08-30T12:48:40;14.30;;;8.95;;
72797;SDS011;61084;55.816;37.036;2022-08-30T12:51:06;19.20;;;8.98;;
72797;SDS011;61084;55.816;37.036;2022-08-30T12:53:37;17.25;;;9.35;;
72797;SDS011;61084;55.816;37.036;2022-08-30T12:56:11;22.25;;;9.45;;
72797;SDS011;61084;55.816;37.036;2022-08-30T12:58:42;19.67;;;8.40;;
72797;SDS011;61084;55.816;37.036;2022-08-30T13:04:09;13.95;;;7.97;;
72797;SDS011;61084;55.816;37.036;2022-08-30T13:06:42;17.25;;;8.65;;
72797;SDS011;61084;55.816;37.036;2022-08-30T13:09:25;17.30;;;8.63;;
72797;SDS011;61084;55.816;37.036;2022-08-30T13:11:54;14.73;;;7.30;;
72797;SDS011;61084;55.816;37.036;2022-08-30T13:23:26;17.60;;;7.55;;
72797;SDS011;61084;55.816;37.036;2022-08-30T13:25:34;12.80;;;7.35;;
72797;SDS011;61084;55.816;37.036;2022-08-30T13:28:03;20.27;;;7.28;;
72797;SDS011;61084;55.816;37.036;2022-08-30T13:30:30;23.13;;;7.57;;
72797;SDS011;61084;55.816;37.036;2022-08-30T13:32:57;15.27;;;7.82;;
72797;SDS011;61084;55.816;37.036;2022-08-30T13:35:23;16.65;;;7.70;;
72797;SDS011;61084;55.816;37.036;2022-08-30T13:37:49;14.15;;;8.00;;
72797;SDS011;61084;55.816;37.036;2022-08-30T13:40:15;16.27;;;7.28;;
72797;SDS011;61084;55.816;37.036;2022-08-30T13:42:42;17.42;;;8.00;;
72797;SDS011;61084;55.816;37.036;2022-08-30T13:45:09;21.90;;;9.98;;
72797;SDS011;61084;55.816;37.036;2022-08-30T13:47:39;24.02;;;9.15;;
72797;SDS011;61084;55.816;37.036;2022-08-30T13:50:05;18.60;;;9.77;;
72797;SDS011;61084;55.816;37.036;2022-08-30T13:52:31;16.95;;;9.07;;
72797;SDS011;61084;55.816;37.036;2022-08-30T13:54:57;15.13;;;10.05;;
72797;SDS011;61084;55.816;37.036;2022-08-30T13:57:24;20.25;;;8.68;;
72797;SDS011;61084;55.816;37.036;2022-08-30T13:59:52;18.30;;;10.07;;
72797;SDS011;61084;55.816;37.036;2022-08-30T14:02:18;15.27;;;9.15;;
72797;SDS011;61084;55.816;37.036;2022-08-30T14:04:44;14.38;;;7.50;;
72797;SDS011;61084;55.816;37.036;2022-08-30T14:07:10;13.32;;;7.40;;
72797;SDS011;61084;55.816;37.036;2022-08-30T14:09:35;15.50;;;6.55;;
72797;SDS011;61084;55.816;37.036;2022-08-30T14:12:02;12.18;;;6.30;;
72797;SDS011;61084;55.816;37.036;2022-08-30T14:14:28;19.45;;;8.13;;
72797;SDS011;61084;55.816;37.036;2022-08-30T14:16:53;12.80;;;7.38;;
72797;SDS011;61084;55.816;37.036;2022-08-30T14:19:19;13.15;;;7.03;;
72797;SDS011;61084;55.816;37.036;2022-08-30T14:21:45;14.70;;;6.18;;
72797;SDS011;61084;55.816;37.036;2022-08-30T14:24:11;15.90;;;8.48;;
72797;SDS011;61084;55.816;37.036;2022-08-30T14:26:41;14.55;;;6.68;;
72797;SDS011;61084;55.816;37.036;2022-08-30T14:29:20;13.77;;;6.75;;
72797;SDS011;61084;55.816;37.036;2022-08-30T14:31:50;16.63;;;7.15;;
72797;SDS011;61084;55.816;37.036;2022-08-30T14:34:16;14.45;;;5.03;;
72797;SDS011;61084;55.816;37.036;2022-08-30T14:36:43;11.65;;;4.72;;
72797;SDS011;61084;55.816;37.036;2022-08-30T14:39:12;20.02;;;5.07;;
72797;SDS011;61084;55.816;37.036;2022-08-30T14:41:43;14.55;;;5.18;;
72797;SDS011;61084;55.816;37.036;2022-08-30T14:44:12;25.45;;;5.15;;
72797;SDS011;61084;55.816;37.036;2022-08-30T14:46:39;11.02;;;4.15;;
72797;SDS011;61084;55.816;37.036;2022-08-30T14:49:05;13.93;;;4.78;;
72797;SDS011;61084;55.816;37.036;2022-08-30T14:51:30;14.13;;;4.30;;
72797;SDS011;61084;55.816;37.036;2022-08-30T14:53:56;15.18;;;4.07;;
72797;SDS011;61084;55.816;37.036;2022-08-30T14:56:22;16.30;;;4.93;;
72797;SDS011;61084;55.816;37.036;2022-08-30T14:58:49;16.42;;;4.25;;
72797;SDS011;61084;55.816;37.036;2022-08-30T15:01:17;13.65;;;3.97;;
72797;SDS011;61084;55.816;37.036;2022-08-30T15:03:44;12.02;;;4.05;;
72797;SDS011;61084;55.816;37.036;2022-08-30T15:06:10;13.27;;;3.95;;
72797;SDS011;61084;55.816;37.036;2022-08-30T15:08:36;12.05;;;3.85;;
72797;SDS011;61084;55.816;37.036;2022-08-30T15:11:07;25.73;;;4.05;;
72797;SDS011;61084;55.816;37.036;2022-08-30T15:13:35;20.27;;;4.35;;
72797;SDS011;61084;55.816;37.036;2022-08-30T15:16:01;13.85;;;3.83;;
72797;SDS011;61084;55.816;37.036;2022-08-30T15:18:33;8.80;;;3.25;;
72797;SDS011;61084;55.816;37.036;2022-08-30T15:20:59;15.82;;;4.18;;
72797;SDS011;61084;55.816;37.036;2022-08-30T15:23:24;16.58;;;4.57;;
72797;SDS011;61084;55.816;37.036;2022-08-30T15:25:50;9.73;;;4.32;;
72797;SDS011;61084;55.816;37.036;2022-08-30T15:28:16;13.80;;;4.97;;
72797;SDS011;61084;55.816;37.036;2022-08-30T15:30:42;13.05;;;4.75;;
72797;SDS011;61084;55.816;37.036;2022-08-30T15:33:08;17.95;;;4.80;;
72797;SDS011;61084;55.816;37.036;2022-08-30T15:35:34;14.38;;;4.22;;
72797;SDS011;61084;55.816;37.036;2022-08-30T15:38:00;12.80;;;3.90;;
72797;SDS011;61084;55.816;37.036;2022-08-30T15:40:26;14.50;;;4.25;;
72797;SDS011;61084;55.816;37.036;2022-08-30T15:42:54;18.58;;;4.93;;
72797;SDS011;61084;55.816;37.036;2022-08-30T15:45:20;15.20;;;4.45;;
72797;SDS011;61084;55.816;37.036;2022-08-30T15:47:46;16.70;;;4.57;;
72797;SDS011;61084;55.816;37.036;2022-08-30T15:50:12;9.80;;;3.60;;
72797;SDS011;61084;55.816;37.036;2022-08-30T15:52:37;10.50;;;3.78;;
72797;SDS011;61084;55.816;37.036;2022-08-30T15:57:29;10.55;;;3.90;;
72797;SDS011;61084;55.816;37.036;2022-08-30T16:02:21;15.68;;;4.72;;
72797;SDS011;61084;55.816;37.036;2022-08-30T16:04:47;12.45;;;4.47;;
72797;SDS011;61084;55.816;37.036;2022-08-30T16:07:13;9.68;;;5.00;;
72797;SDS011;61084;55.816;37.036;2022-08-30T16:09:39;14.93;;;4.95;;
72797;SDS011;61084;55.816;37.036;2022-08-30T16:12:05;13.18;;;4.07;;
72797;SDS011;61084;55.816;37.036;2022-08-30T16:14:32;10.05;;;3.72;;
72797;SDS011;61084;55.816;37.036;2022-08-30T16:16:58;19.38;;;4.82;;
72797;SDS011;61084;55.816;37.036;2022-08-30T16:19:24;12.18;;;4.30;;
72797;SDS011;61084;55.816;37.036;2022-08-30T16:24:16;11.65;;;4.35;;
72797;SDS011;61084;55.816;37.036;2022-08-30T16:26:44;12.82;;;4.78;;
72797;SDS011;61084;55.816;37.036;2022-08-30T16:29:11;15.05;;;4.55;;
72797;SDS011;61084;55.816;37.036;2022-08-30T16:31:38;13.38;;;4.57;;
72797;SDS011;61084;55.816;37.036;2022-08-30T16:34:05;15.48;;;5.07;;
72797;SDS011;61084;55.816;37.036;2022-08-30T16:36:31;15.43;;;5.20;;
72797;SDS011;61084;55.816;37.036;2022-08-30T16:39:00;14.70;;;4.68;;
72797;SDS011;61084;55.816;37.036;2022-08-30T16:41:27;19.23;;;4.72;;
72797;SDS011;61084;55.816;37.036;2022-08-30T16:43:53;17.88;;;4.88;;
72797;SDS011;61084;55.816;37.036;2022-08-30T16:46:20;17.05;;;4.82;;
72797;SDS011;61084;55.816;37.036;2022-08-30T16:48:47;12.32;;;4.55;;
72797;SDS011;61084;55.816;37.036;2022-08-30T16:53:42;30.15;;;5.60;;
72797;SDS011;61084;55.816;37.036;2022-08-30T16:56:16;32.88;;;5.13;;